N172DE KUKT-KILG
Flight info
| Callsign | N172DE |
|---|---|
| Flight time | 0h 31m |
| Altitude | 4500 |
| Route | VFR SOUTH WEST |
| Aircraft | C172/L-VGD/C |
Departure
| Time | 2026-04-29 01:05 |
|---|---|
| Airport | Quakertown Airport (KUKT) |
Arrival
| Time | 2026-04-29 01:36 |
|---|---|
| Airport | Wilmington Airport (KILG) |
| Time | Latitude | Longitude | Altitude | Speed | Heading |
|---|---|---|---|---|---|
| 2026-04-29 01:02 | 40.43559 | -75.38051 | 505 ft | 0 kts | 95° |
| 2026-04-29 01:02 | 40.43550 | -75.38018 | 505 ft | 4 kts | 128° |
| 2026-04-29 01:03 | 40.43527 | -75.37920 | 505 ft | 20 kts | 98° |
| 2026-04-29 01:03 | 40.43502 | -75.37730 | 504 ft | 17 kts | 98° |
| 2026-04-29 01:03 | 40.43467 | -75.37627 | 504 ft | 13 kts | 191° |
| 2026-04-29 01:03 | 40.43471 | -75.37839 | 505 ft | 46 kts | 280° |
| 2026-04-29 01:04 | 40.43544 | -75.38387 | 608 ft | 66 kts | 277° |
| 2026-04-29 01:04 | 40.43613 | -75.38950 | 836 ft | 60 kts | 275° |
| 2026-04-29 01:04 | 40.43404 | -75.39346 | 910 ft | 64 kts | 175° |
| 2026-04-29 01:04 | 40.42957 | -75.39200 | 990 ft | 69 kts | 170° |
| 2026-04-29 01:05 | 40.42510 | -75.39217 | 1104 ft | 68 kts | 208° |
| 2026-04-29 01:05 | 40.42106 | -75.39495 | 1304 ft | 66 kts | 202° |
| 2026-04-29 01:05 | 40.41701 | -75.39660 | 1522 ft | 59 kts | 187° |
| 2026-04-29 01:05 | 40.41309 | -75.39771 | 1736 ft | 53 kts | 188° |
| 2026-04-29 01:06 | 40.41014 | -75.39822 | 1869 ft | 55 kts | 176° |
| 2026-04-29 01:06 | 40.40589 | -75.39955 | 1972 ft | 66 kts | 189° |
| 2026-04-29 01:06 | 40.40113 | -75.40093 | 2109 ft | 73 kts | 193° |
| 2026-04-29 01:06 | 40.39614 | -75.40331 | 2247 ft | 77 kts | 201° |
| 2026-04-29 01:07 | 40.39121 | -75.40600 | 2419 ft | 77 kts | 201° |
| 2026-04-29 01:07 | 40.38626 | -75.40874 | 2559 ft | 79 kts | 202° |
| 2026-04-29 01:07 | 40.38094 | -75.41172 | 2591 ft | 88 kts | 202° |
| 2026-04-29 01:07 | 40.37496 | -75.41515 | 2591 ft | 96 kts | 203° |
| 2026-04-29 01:08 | 40.36862 | -75.41879 | 2594 ft | 102 kts | 203° |
| 2026-04-29 01:08 | 40.36200 | -75.42259 | 2590 ft | 105 kts | 203° |
| 2026-04-29 01:08 | 40.35521 | -75.42648 | 2592 ft | 106 kts | 203° |
| 2026-04-29 01:08 | 40.34844 | -75.43037 | 2589 ft | 106 kts | 203° |
| 2026-04-29 01:09 | 40.34164 | -75.43424 | 2589 ft | 106 kts | 204° |
| 2026-04-29 01:09 | 40.33481 | -75.43812 | 2586 ft | 106 kts | 203° |
| 2026-04-29 01:09 | 40.32800 | -75.44197 | 2591 ft | 106 kts | 203° |
| 2026-04-29 01:09 | 40.32115 | -75.44583 | 2589 ft | 106 kts | 203° |
| 2026-04-29 01:10 | 40.31440 | -75.44965 | 2588 ft | 106 kts | 203° |
| 2026-04-29 01:10 | 40.30758 | -75.45349 | 2587 ft | 106 kts | 203° |
| 2026-04-29 01:10 | 40.30079 | -75.45731 | 2587 ft | 106 kts | 203° |
| 2026-04-29 01:10 | 40.29394 | -75.46117 | 2592 ft | 106 kts | 203° |
| 2026-04-29 01:11 | 40.28702 | -75.46505 | 2586 ft | 107 kts | 204° |
| 2026-04-29 01:11 | 40.28024 | -75.46886 | 2584 ft | 106 kts | 203° |
| 2026-04-29 01:11 | 40.27334 | -75.47275 | 2589 ft | 106 kts | 203° |
| 2026-04-29 01:11 | 40.26663 | -75.47653 | 2590 ft | 106 kts | 204° |
| 2026-04-29 01:12 | 40.25981 | -75.48034 | 2589 ft | 106 kts | 204° |
| 2026-04-29 01:12 | 40.25293 | -75.48422 | 2591 ft | 106 kts | 203° |
| 2026-04-29 01:12 | 40.24614 | -75.48802 | 2585 ft | 106 kts | 203° |
| 2026-04-29 01:12 | 40.23930 | -75.49184 | 2592 ft | 106 kts | 203° |
| 2026-04-29 01:13 | 40.23240 | -75.49571 | 2589 ft | 106 kts | 203° |
| 2026-04-29 01:13 | 40.22560 | -75.49953 | 2587 ft | 106 kts | 203° |
| 2026-04-29 01:13 | 40.21886 | -75.50328 | 2597 ft | 105 kts | 203° |
| 2026-04-29 01:13 | 40.21200 | -75.50715 | 2602 ft | 106 kts | 204° |
| 2026-04-29 01:14 | 40.20515 | -75.51099 | 2588 ft | 108 kts | 203° |
| 2026-04-29 01:14 | 40.19817 | -75.51489 | 2589 ft | 107 kts | 204° |
| 2026-04-29 01:14 | 40.19132 | -75.51872 | 2585 ft | 107 kts | 203° |
| 2026-04-29 01:14 | 40.18442 | -75.52258 | 2590 ft | 107 kts | 203° |
| 2026-04-29 01:15 | 40.17764 | -75.52638 | 2589 ft | 107 kts | 203° |
| 2026-04-29 01:15 | 40.17077 | -75.53022 | 2586 ft | 107 kts | 203° |
| 2026-04-29 01:15 | 40.16380 | -75.53411 | 2587 ft | 108 kts | 202° |
| 2026-04-29 01:15 | 40.15695 | -75.53795 | 2584 ft | 107 kts | 203° |
| 2026-04-29 01:16 | 40.15002 | -75.54183 | 2588 ft | 107 kts | 202° |
| 2026-04-29 01:16 | 40.14308 | -75.54570 | 2592 ft | 107 kts | 203° |
| 2026-04-29 01:16 | 40.13623 | -75.54952 | 2587 ft | 107 kts | 204° |
| 2026-04-29 01:16 | 40.12931 | -75.55339 | 2586 ft | 106 kts | 203° |
| 2026-04-29 01:17 | 40.12251 | -75.55720 | 2586 ft | 106 kts | 203° |
| 2026-04-29 01:17 | 40.11794 | -75.55975 | 2585 ft | 106 kts | 203° |
| 2026-04-29 01:17 | 40.10890 | -75.56479 | 2586 ft | 105 kts | 203° |
| 2026-04-29 01:17 | 40.10203 | -75.56863 | 2588 ft | 106 kts | 203° |
| 2026-04-29 01:18 | 40.09524 | -75.57240 | 2582 ft | 106 kts | 202° |
| 2026-04-29 01:18 | 40.08157 | -75.58006 | 2587 ft | 106 kts | 202° |
| 2026-04-29 01:18 | 40.07470 | -75.58390 | 2586 ft | 107 kts | 203° |
| 2026-04-29 01:19 | 40.06785 | -75.58772 | 2585 ft | 107 kts | 202° |
| 2026-04-29 01:19 | 40.06105 | -75.59150 | 2584 ft | 107 kts | 203° |
| 2026-04-29 01:19 | 40.05413 | -75.59535 | 2588 ft | 107 kts | 202° |
| 2026-04-29 01:19 | 40.04721 | -75.59921 | 2587 ft | 107 kts | 203° |
| 2026-04-29 01:20 | 40.04034 | -75.60303 | 2589 ft | 107 kts | 203° |
| 2026-04-29 01:20 | 40.03347 | -75.60686 | 2587 ft | 107 kts | 202° |
| 2026-04-29 01:20 | 40.02650 | -75.61073 | 2585 ft | 107 kts | 202° |
| 2026-04-29 01:20 | 40.01968 | -75.61453 | 2583 ft | 107 kts | 202° |
| 2026-04-29 01:21 | 40.01277 | -75.61836 | 2583 ft | 107 kts | 203° |
| 2026-04-29 01:21 | 40.00590 | -75.62217 | 2587 ft | 107 kts | 203° |
| 2026-04-29 01:21 | 39.99907 | -75.62598 | 2587 ft | 107 kts | 203° |
| 2026-04-29 01:21 | 39.99211 | -75.62985 | 2586 ft | 107 kts | 204° |
| 2026-04-29 01:22 | 39.98519 | -75.63370 | 2587 ft | 107 kts | 203° |
| 2026-04-29 01:22 | 39.97833 | -75.63752 | 2586 ft | 107 kts | 202° |
| 2026-04-29 01:22 | 39.97145 | -75.64133 | 2586 ft | 107 kts | 203° |
| 2026-04-29 01:22 | 39.96462 | -75.64511 | 2588 ft | 107 kts | 203° |
| 2026-04-29 01:23 | 39.95775 | -75.64893 | 2590 ft | 107 kts | 203° |
| 2026-04-29 01:23 | 39.95086 | -75.65274 | 2590 ft | 107 kts | 202° |
| 2026-04-29 01:23 | 39.94414 | -75.65647 | 2586 ft | 107 kts | 202° |
| 2026-04-29 01:23 | 39.93737 | -75.66024 | 2589 ft | 107 kts | 202° |
| 2026-04-29 01:24 | 39.93051 | -75.66402 | 2591 ft | 107 kts | 202° |
| 2026-04-29 01:24 | 39.92359 | -75.66786 | 2588 ft | 108 kts | 202° |
| 2026-04-29 01:24 | 39.91621 | -75.66951 | 2589 ft | 108 kts | 177° |
| 2026-04-29 01:24 | 39.90867 | -75.66813 | 2587 ft | 109 kts | 172° |
| 2026-04-29 01:25 | 39.90130 | -75.66632 | 2586 ft | 109 kts | 171° |
| 2026-04-29 01:25 | 39.89376 | -75.66436 | 2586 ft | 109 kts | 170° |
| 2026-04-29 01:25 | 39.88653 | -75.66246 | 2591 ft | 109 kts | 170° |
| 2026-04-29 01:25 | 39.87933 | -75.66054 | 2590 ft | 109 kts | 169° |
| 2026-04-29 01:26 | 39.87190 | -75.65855 | 2592 ft | 109 kts | 169° |
| 2026-04-29 01:26 | 39.86437 | -75.65653 | 2588 ft | 109 kts | 170° |
| 2026-04-29 01:26 | 39.85687 | -75.65450 | 2595 ft | 109 kts | 169° |
| 2026-04-29 01:26 | 39.84937 | -75.65250 | 2594 ft | 109 kts | 170° |
| 2026-04-29 01:27 | 39.84436 | -75.65116 | 2593 ft | 109 kts | 171° |
| 2026-04-29 01:27 | 39.83445 | -75.64851 | 2590 ft | 109 kts | 170° |
| 2026-04-29 01:27 | 39.82687 | -75.64647 | 2591 ft | 109 kts | 170° |
| 2026-04-29 01:27 | 39.81941 | -75.64447 | 2594 ft | 109 kts | 170° |
| 2026-04-29 01:28 | 39.81199 | -75.64248 | 2590 ft | 109 kts | 169° |
| 2026-04-29 01:28 | 39.80452 | -75.64047 | 2598 ft | 109 kts | 169° |
| 2026-04-29 01:28 | 39.79698 | -75.63846 | 2592 ft | 110 kts | 170° |
| 2026-04-29 01:28 | 39.78957 | -75.63646 | 2590 ft | 109 kts | 170° |
| 2026-04-29 01:29 | 39.78212 | -75.63448 | 2589 ft | 108 kts | 170° |
| 2026-04-29 01:29 | 39.77463 | -75.63246 | 2588 ft | 108 kts | 169° |
| 2026-04-29 01:29 | 39.76719 | -75.63046 | 2589 ft | 108 kts | 169° |
| 2026-04-29 01:29 | 39.75984 | -75.62850 | 2593 ft | 109 kts | 169° |
| 2026-04-29 01:30 | 39.75234 | -75.62649 | 2590 ft | 109 kts | 169° |
| 2026-04-29 01:30 | 39.74485 | -75.62450 | 2501 ft | 109 kts | 172° |
| 2026-04-29 01:30 | 39.73772 | -75.62215 | 2192 ft | 103 kts | 166° |
| 2026-04-29 01:30 | 39.73081 | -75.62027 | 1896 ft | 99 kts | 172° |
| 2026-04-29 01:31 | 39.72413 | -75.61839 | 1568 ft | 96 kts | 165° |
| 2026-04-29 01:31 | 39.71822 | -75.61611 | 1415 ft | 80 kts | 164° |
| 2026-04-29 01:31 | 39.71318 | -75.61451 | 1261 ft | 73 kts | 168° |
| 2026-04-29 01:31 | 39.70815 | -75.61293 | 1102 ft | 77 kts | 164° |
| 2026-04-29 01:32 | 39.70290 | -75.61169 | 989 ft | 78 kts | 172° |
| 2026-04-29 01:32 | 39.69856 | -75.61473 | 889 ft | 86 kts | 253° |
| 2026-04-29 01:32 | 39.70080 | -75.62189 | 858 ft | 84 kts | 299° |
| 2026-04-29 01:32 | 39.70363 | -75.62842 | 967 ft | 80 kts | 290° |
| 2026-04-29 01:33 | 39.70415 | -75.63545 | 1001 ft | 81 kts | 222° |
| 2026-04-29 01:33 | 39.69952 | -75.63878 | 1014 ft | 79 kts | 194° |
| 2026-04-29 01:33 | 39.69423 | -75.64115 | 946 ft | 75 kts | 204° |
| 2026-04-29 01:33 | 39.69013 | -75.64503 | 911 ft | 71 kts | 208° |
| 2026-04-29 01:34 | 39.68589 | -75.64880 | 805 ft | 76 kts | 209° |
| 2026-04-29 01:34 | 39.68134 | -75.65208 | 767 ft | 68 kts | 184° |
| 2026-04-29 01:34 | 39.67747 | -75.64903 | 782 ft | 71 kts | 116° |
| 2026-04-29 01:34 | 39.67645 | -75.64273 | 749 ft | 76 kts | 82° |
| 2026-04-29 01:35 | 39.67931 | -75.63655 | 732 ft | 83 kts | 69° |
| 2026-04-29 01:35 | 39.68132 | -75.62948 | 612 ft | 83 kts | 82° |
| 2026-04-29 01:35 | 39.68162 | -75.62228 | 425 ft | 78 kts | 104° |
| 2026-04-29 01:35 | 39.67992 | -75.61629 | 248 ft | 68 kts | 129° |
| 2026-04-29 01:36 | 39.67694 | -75.61169 | 85 ft | 61 kts | 132° |
| 2026-04-29 01:36 | 39.67461 | -75.60824 | 72 ft | 41 kts | 130° |
| 2026-04-29 01:36 | 39.67306 | -75.60615 | 73 ft | 22 kts | 168° |
| 2026-04-29 01:36 | 39.67243 | -75.60706 | 72 ft | 11 kts | 294° |
| 2026-04-29 01:37 | 39.67244 | -75.60805 | 72 ft | 9 kts | 239° |
| 2026-04-29 01:37 | 39.67242 | -75.60815 | 72 ft | 0 kts | 270° |